Meteo Giornale » Osservazioni meteo Italia » Pescara

ore: 08:50 - Osservazioni Meteo Pescara
Lat. 42° 26' N Lon. 14° 12' E Alt. 10 metri s.l.m.

molto_nuvoloso Europe/Rome

11 °C

Molto Nuvoloso

Temp. 24 Ore

9 °C

16 °C

Nord-Ovest

7.4 Km/h

Dew point 6 °C

Umidità 71 %

Visibilità  10 Km

Il sole sorge alle ore 06:06

Il sole tramonta alle ore 18:15

Data e Ora Cielo e Fenomeni T °C DP °C Um. % Pres. hPa Vis. km Vento km/h
Oggi h: 08:50 molto_nuvoloso Molto Nuvoloso 11 6 71 1018 10 NO 7.4
Oggi h: 07:50 molto_nuvoloso Molto Nuvoloso 10 6 76 1018 10 N 3.7
Oggi h: 06:50 molto_nuvoloso Molto Nuvoloso 10 6 76 1017 10 N 5.5
Oggi h: 05:50 coperto Coperto 9 6 81 1017 10 N 5.5
Oggi h: 04:50 coperto Coperto 10 5 71 1016 10 N 3.7
Oggi h: 03:50 molto_nuvoloso Molto Nuvoloso 10 5 71 1016 10 N 3.7
Oggi h: 02:50 coperto Coperto 10 6 76 1016 10 N 3.7
Oggi h: 01:50 molto_nuvoloso Molto Nuvoloso 10 6 76 1016 10 N 5.5
Oggi h: 00:50 molto_nuvoloso Molto Nuvoloso 11 6 71 1016 10 N 5.5
Ieri h: 23:50 molto_nuvoloso Molto Nuvoloso 11 6 71 1016 10 N 3.7
Ieri h: 22:50 molto_nuvoloso Molto Nuvoloso 11 6 71 1016 10 N 7.4
Ieri h: 21:50 coperto Coperto 11 7 76 1016 10 NO 9.3
Ieri h: 20:50 molto_nuvoloso Molto Nuvoloso 12 7 71 1015 10 N 11.1
Ieri h: 19:50 molto_nuvoloso Molto Nuvoloso 12 8 76 1015 10 N/NO 11.1
Ieri h: 18:50 molto_nuvoloso Molto Nuvoloso 12 8 76 1014 10 N 13
Ieri h: 16:50 molto_nuvoloso Molto Nuvoloso 15 11 76 1013 10 N 5.5
Ieri h: 15:50 poco_nuvoloso Poco Nuvoloso 16 10 67 1012 10 NE 9.3
Ieri h: 14:50 poco_nuvoloso Poco Nuvoloso 16 10 67 1012 10 NE 9.3
Ieri h: 13:50 poco_nuvoloso Poco Nuvoloso 16 10 67 1012 10 NE 9.3
Ieri h: 12:50 sereno Sereno 15 11 76 1013 10 N/NE 7.4
Ieri h: 11:50 nuvoloso Nuvoloso 12 10 87 1013 8 N/NE 11.1
Ieri h: 11:37 nuvoloso Nuvoloso 12 10 87 1013 8 N/NE 13
Ieri h: 10:56 foschia Foschia 12 10 87 1013 5 NE 16.7
Ieri h: 10:50 nuvoloso Nuvoloso 12 10 87 1013 6 NE 16.7
Ieri h: 09:50 sereno Sereno 14 10 76 1012 10 NE 7.4
Ieri h: 08:50 sereno Sereno 11 9 87 1012 10 N 3.7